sensor_id;sensor_type;location;lat;lon;timestamp;P1;durP1;ratioP1;P2;durP2;ratioP2
21613;SDS011;10969;49.550;25.564;2022-07-09T00:01:05;1.35;;;1.25;;
21613;SDS011;10969;49.550;25.564;2022-07-09T00:03:31;1.38;;;1.27;;
21613;SDS011;10969;49.550;25.564;2022-07-09T00:05:57;2.97;;;0.98;;
21613;SDS011;10969;49.550;25.564;2022-07-09T00:08:24;1.27;;;0.93;;
21613;SDS011;10969;49.550;25.564;2022-07-09T00:10:50;1.25;;;1.15;;
21613;SDS011;10969;49.550;25.564;2022-07-09T00:13:16;1.15;;;1.05;;
21613;SDS011;10969;49.550;25.564;2022-07-09T00:15:42;0.60;;;0.60;;
21613;SDS011;10969;49.550;25.564;2022-07-09T00:18:08;1.83;;;1.50;;
21613;SDS011;10969;49.550;25.564;2022-07-09T00:20:34;1.33;;;1.23;;
21613;SDS011;10969;49.550;25.564;2022-07-09T00:23:00;2.15;;;1.42;;
21613;SDS011;10969;49.550;25.564;2022-07-09T00:25:26;3.47;;;2.20;;
21613;SDS011;10969;49.550;25.564;2022-07-09T00:27:52;0.88;;;0.88;;
21613;SDS011;10969;49.550;25.564;2022-07-09T00:30:18;1.40;;;1.30;;
21613;SDS011;10969;49.550;25.564;2022-07-09T00:32:44;1.55;;;1.30;;
21613;SDS011;10969;49.550;25.564;2022-07-09T00:35:10;1.30;;;1.15;;
21613;SDS011;10969;49.550;25.564;2022-07-09T00:37:36;2.08;;;1.38;;
21613;SDS011;10969;49.550;25.564;2022-07-09T00:40:02;2.55;;;1.63;;
21613;SDS011;10969;49.550;25.564;2022-07-09T00:42:28;1.73;;;1.55;;
21613;SDS011;10969;49.550;25.564;2022-07-09T00:44:54;1.55;;;1.20;;
21613;SDS011;10969;49.550;25.564;2022-07-09T00:47:20;3.35;;;1.48;;
21613;SDS011;10969;49.550;25.564;2022-07-09T00:49:46;1.42;;;0.90;;
21613;SDS011;10969;49.550;25.564;2022-07-09T00:52:13;1.70;;;1.60;;
21613;SDS011;10969;49.550;25.564;2022-07-09T00:54:40;2.50;;;1.88;;
21613;SDS011;10969;49.550;25.564;2022-07-09T00:57:08;2.10;;;1.80;;
21613;SDS011;10969;49.550;25.564;2022-07-09T00:59:37;2.20;;;1.73;;
21613;SDS011;10969;49.550;25.564;2022-07-09T01:02:05;1.70;;;1.20;;
21613;SDS011;10969;49.550;25.564;2022-07-09T01:04:32;12.63;;;1.85;;
21613;SDS011;10969;49.550;25.564;2022-07-09T01:06:58;2.05;;;1.67;;
21613;SDS011;10969;49.550;25.564;2022-07-09T01:09:25;1.55;;;1.45;;
21613;SDS011;10969;49.550;25.564;2022-07-09T01:11:52;0.85;;;0.80;;
21613;SDS011;10969;49.550;25.564;2022-07-09T01:14:18;1.42;;;1.33;;
21613;SDS011;10969;49.550;25.564;2022-07-09T01:16:44;3.10;;;1.45;;
21613;SDS011;10969;49.550;25.564;2022-07-09T01:19:10;2.72;;;1.65;;
21613;SDS011;10969;49.550;25.564;2022-07-09T01:21:36;3.40;;;2.10;;
21613;SDS011;10969;49.550;25.564;2022-07-09T01:24:03;1.30;;;1.20;;
21613;SDS011;10969;49.550;25.564;2022-07-09T01:26:29;1.60;;;1.02;;
21613;SDS011;10969;49.550;25.564;2022-07-09T01:28:55;3.58;;;1.83;;
21613;SDS011;10969;49.550;25.564;2022-07-09T01:31:21;2.30;;;2.10;;
21613;SDS011;10969;49.550;25.564;2022-07-09T01:33:47;1.98;;;1.75;;
21613;SDS011;10969;49.550;25.564;2022-07-09T01:36:13;1.83;;;1.67;;
21613;SDS011;10969;49.550;25.564;2022-07-09T01:38:39;2.00;;;1.90;;
21613;SDS011;10969;49.550;25.564;2022-07-09T01:41:05;1.95;;;1.73;;
21613;SDS011;10969;49.550;25.564;2022-07-09T01:43:31;2.15;;;1.52;;
21613;SDS011;10969;49.550;25.564;2022-07-09T01:45:58;1.23;;;1.13;;
21613;SDS011;10969;49.550;25.564;2022-07-09T01:48:25;5.20;;;2.08;;
21613;SDS011;10969;49.550;25.564;2022-07-09T01:50:51;1.20;;;1.17;;
21613;SDS011;10969;49.550;25.564;2022-07-09T01:53:18;1.98;;;1.33;;
21613;SDS011;10969;49.550;25.564;2022-07-09T01:55:45;2.78;;;1.98;;
21613;SDS011;10969;49.550;25.564;2022-07-09T01:58:11;1.30;;;1.20;;
21613;SDS011;10969;49.550;25.564;2022-07-09T02:00:37;1.55;;;1.45;;
21613;SDS011;10969;49.550;25.564;2022-07-09T02:03:03;2.60;;;1.95;;
21613;SDS011;10969;49.550;25.564;2022-07-09T02:05:29;2.95;;;1.60;;
21613;SDS011;10969;49.550;25.564;2022-07-09T02:07:55;1.25;;;1.17;;
21613;SDS011;10969;49.550;25.564;2022-07-09T02:10:21;3.25;;;2.10;;
21613;SDS011;10969;49.550;25.564;2022-07-09T02:12:47;1.77;;;1.60;;
21613;SDS011;10969;49.550;25.564;2022-07-09T02:15:13;2.30;;;1.75;;
21613;SDS011;10969;49.550;25.564;2022-07-09T02:17:39;1.60;;;1.50;;
21613;SDS011;10969;49.550;25.564;2022-07-09T02:20:05;2.38;;;1.65;;
21613;SDS011;10969;49.550;25.564;2022-07-09T02:22:31;1.60;;;1.50;;
21613;SDS011;10969;49.550;25.564;2022-07-09T02:24:57;1.80;;;1.65;;
21613;SDS011;10969;49.550;25.564;2022-07-09T02:27:23;3.60;;;2.17;;
21613;SDS011;10969;49.550;25.564;2022-07-09T02:29:49;3.60;;;2.58;;
21613;SDS011;10969;49.550;25.564;2022-07-09T02:32:15;2.63;;;1.98;;
21613;SDS011;10969;49.550;25.564;2022-07-09T02:34:41;3.47;;;2.00;;
21613;SDS011;10969;49.550;25.564;2022-07-09T02:37:07;2.28;;;2.08;;
21613;SDS011;10969;49.550;25.564;2022-07-09T02:39:34;3.10;;;1.85;;
21613;SDS011;10969;49.550;25.564;2022-07-09T02:42:00;1.90;;;1.70;;
21613;SDS011;10969;49.550;25.564;2022-07-09T02:44:26;4.00;;;1.98;;
21613;SDS011;10969;49.550;25.564;2022-07-09T02:46:52;3.45;;;1.90;;
21613;SDS011;10969;49.550;25.564;2022-07-09T02:49:18;2.60;;;1.63;;
21613;SDS011;10969;49.550;25.564;2022-07-09T02:51:46;2.08;;;1.90;;
21613;SDS011;10969;49.550;25.564;2022-07-09T02:54:12;1.40;;;1.30;;
21613;SDS011;10969;49.550;25.564;2022-07-09T02:56:38;2.80;;;2.05;;
21613;SDS011;10969;49.550;25.564;2022-07-09T02:59:04;2.47;;;1.75;;
21613;SDS011;10969;49.550;25.564;2022-07-09T03:01:30;1.58;;;1.48;;
21613;SDS011;10969;49.550;25.564;2022-07-09T03:03:56;3.80;;;2.33;;
21613;SDS011;10969;49.550;25.564;2022-07-09T03:06:22;1.90;;;1.77;;
21613;SDS011;10969;49.550;25.564;2022-07-09T03:08:48;4.13;;;2.20;;
21613;SDS011;10969;49.550;25.564;2022-07-09T03:11:14;2.80;;;2.40;;
21613;SDS011;10969;49.550;25.564;2022-07-09T03:13:40;2.55;;;2.15;;
21613;SDS011;10969;49.550;25.564;2022-07-09T03:16:06;2.10;;;1.88;;
21613;SDS011;10969;49.550;25.564;2022-07-09T03:18:32;3.05;;;2.30;;
21613;SDS011;10969;49.550;25.564;2022-07-09T03:20:58;2.92;;;1.63;;
21613;SDS011;10969;49.550;25.564;2022-07-09T03:23:24;2.10;;;1.98;;
21613;SDS011;10969;49.550;25.564;2022-07-09T03:25:50;3.03;;;2.17;;
21613;SDS011;10969;49.550;25.564;2022-07-09T03:28:17;3.53;;;1.83;;
21613;SDS011;10969;49.550;25.564;2022-07-09T03:30:43;2.42;;;2.00;;
21613;SDS011;10969;49.550;25.564;2022-07-09T03:33:09;1.92;;;1.25;;
21613;SDS011;10969;49.550;25.564;2022-07-09T03:35:35;1.98;;;1.70;;
21613;SDS011;10969;49.550;25.564;2022-07-09T03:38:01;2.95;;;2.72;;
21613;SDS011;10969;49.550;25.564;2022-07-09T03:40:27;3.30;;;2.05;;
21613;SDS011;10969;49.550;25.564;2022-07-09T03:42:54;4.30;;;2.55;;
21613;SDS011;10969;49.550;25.564;2022-07-09T03:45:20;2.47;;;2.25;;
21613;SDS011;10969;49.550;25.564;2022-07-09T03:47:46;4.45;;;2.67;;
21613;SDS011;10969;49.550;25.564;2022-07-09T03:50:13;3.67;;;2.83;;
21613;SDS011;10969;49.550;25.564;2022-07-09T03:52:40;4.07;;;2.60;;
21613;SDS011;10969;49.550;25.564;2022-07-09T03:55:06;6.10;;;3.40;;
21613;SDS011;10969;49.550;25.564;2022-07-09T03:57:32;4.28;;;3.30;;
21613;SDS011;10969;49.550;25.564;2022-07-09T03:59:58;5.35;;;3.65;;
21613;SDS011;10969;49.550;25.564;2022-07-09T04:02:24;5.30;;;2.67;;
21613;SDS011;10969;49.550;25.564;2022-07-09T04:04:50;4.70;;;4.00;;
21613;SDS011;10969;49.550;25.564;2022-07-09T04:07:16;5.97;;;3.65;;
21613;SDS011;10969;49.550;25.564;2022-07-09T04:09:42;4.65;;;3.38;;
21613;SDS011;10969;49.550;25.564;2022-07-09T04:12:08;4.95;;;3.67;;
21613;SDS011;10969;49.550;25.564;2022-07-09T04:14:34;5.93;;;3.85;;
21613;SDS011;10969;49.550;25.564;2022-07-09T04:17:00;6.68;;;3.67;;
21613;SDS011;10969;49.550;25.564;2022-07-09T04:19:26;6.82;;;3.60;;
21613;SDS011;10969;49.550;25.564;2022-07-09T04:21:52;5.57;;;3.60;;
21613;SDS011;10969;49.550;25.564;2022-07-09T04:24:18;6.40;;;3.58;;
21613;SDS011;10969;49.550;25.564;2022-07-09T04:26:44;5.18;;;3.78;;
21613;SDS011;10969;49.550;25.564;2022-07-09T04:29:10;7.07;;;4.07;;
21613;SDS011;10969;49.550;25.564;2022-07-09T04:31:36;5.75;;;3.20;;
21613;SDS011;10969;49.550;25.564;2022-07-09T04:34:02;7.07;;;4.95;;
21613;SDS011;10969;49.550;25.564;2022-07-09T04:36:28;5.97;;;3.65;;
21613;SDS011;10969;49.550;25.564;2022-07-09T04:38:54;4.45;;;3.03;;
21613;SDS011;10969;49.550;25.564;2022-07-09T04:41:21;5.85;;;3.45;;
21613;SDS011;10969;49.550;25.564;2022-07-09T04:43:47;5.00;;;3.30;;
21613;SDS011;10969;49.550;25.564;2022-07-09T04:46:13;5.60;;;4.13;;
21613;SDS011;10969;49.550;25.564;2022-07-09T04:48:41;6.32;;;4.07;;
21613;SDS011;10969;49.550;25.564;2022-07-09T04:51:07;5.15;;;3.25;;
21613;SDS011;10969;49.550;25.564;2022-07-09T04:53:33;5.28;;;2.65;;
21613;SDS011;10969;49.550;25.564;2022-07-09T04:55:59;4.25;;;2.85;;
21613;SDS011;10969;49.550;25.564;2022-07-09T04:58:25;4.07;;;2.88;;
21613;SDS011;10969;49.550;25.564;2022-07-09T05:00:51;2.92;;;2.60;;
21613;SDS011;10969;49.550;25.564;2022-07-09T05:03:17;3.05;;;2.75;;
21613;SDS011;10969;49.550;25.564;2022-07-09T05:05:43;2.65;;;2.45;;
21613;SDS011;10969;49.550;25.564;2022-07-09T05:08:09;4.32;;;2.65;;
21613;SDS011;10969;49.550;25.564;2022-07-09T05:10:35;3.17;;;2.78;;
21613;SDS011;10969;49.550;25.564;2022-07-09T05:13:01;2.95;;;2.53;;
21613;SDS011;10969;49.550;25.564;2022-07-09T05:15:27;3.30;;;2.33;;
21613;SDS011;10969;49.550;25.564;2022-07-09T05:17:56;5.80;;;2.75;;
21613;SDS011;10969;49.550;25.564;2022-07-09T05:20:22;5.97;;;2.58;;
21613;SDS011;10969;49.550;25.564;2022-07-09T05:22:49;2.92;;;2.63;;
21613;SDS011;10969;49.550;25.564;2022-07-09T05:25:15;2.80;;;2.20;;
21613;SDS011;10969;49.550;25.564;2022-07-09T05:27:42;3.72;;;2.10;;
21613;SDS011;10969;49.550;25.564;2022-07-09T05:30:08;2.33;;;2.13;;
21613;SDS011;10969;49.550;25.564;2022-07-09T05:32:34;2.50;;;2.30;;
21613;SDS011;10969;49.550;25.564;2022-07-09T05:35:00;3.08;;;2.28;;
21613;SDS011;10969;49.550;25.564;2022-07-09T05:37:26;1.90;;;1.80;;
21613;SDS011;10969;49.550;25.564;2022-07-09T05:39:53;2.30;;;2.10;;
21613;SDS011;10969;49.550;25.564;2022-07-09T05:42:21;2.97;;;2.38;;
21613;SDS011;10969;49.550;25.564;2022-07-09T05:44:47;2.35;;;2.03;;
21613;SDS011;10969;49.550;25.564;2022-07-09T05:47:13;2.95;;;2.40;;
21613;SDS011;10969;49.550;25.564;2022-07-09T05:49:40;1.90;;;1.80;;
21613;SDS011;10969;49.550;25.564;2022-07-09T05:52:06;1.63;;;1.40;;
21613;SDS011;10969;49.550;25.564;2022-07-09T05:54:32;1.80;;;1.60;;
21613;SDS011;10969;49.550;25.564;2022-07-09T05:56:58;1.75;;;1.65;;
21613;SDS011;10969;49.550;25.564;2022-07-09T05:59:24;2.38;;;1.80;;
21613;SDS011;10969;49.550;25.564;2022-07-09T06:01:50;1.65;;;1.40;;
21613;SDS011;10969;49.550;25.564;2022-07-09T06:04:17;1.52;;;1.30;;
21613;SDS011;10969;49.550;25.564;2022-07-09T06:06:43;2.20;;;2.00;;
21613;SDS011;10969;49.550;25.564;2022-07-09T06:09:10;1.77;;;1.67;;
21613;SDS011;10969;49.550;25.564;2022-07-09T06:11:36;1.35;;;1.25;;
21613;SDS011;10969;49.550;25.564;2022-07-09T06:14:02;1.85;;;1.50;;
21613;SDS011;10969;49.550;25.564;2022-07-09T06:16:28;1.55;;;1.45;;
21613;SDS011;10969;49.550;25.564;2022-07-09T06:18:54;0.98;;;0.98;;
21613;SDS011;10969;49.550;25.564;2022-07-09T06:21:20;1.45;;;1.05;;
21613;SDS011;10969;49.550;25.564;2022-07-09T06:23:46;2.17;;;1.70;;
21613;SDS011;10969;49.550;25.564;2022-07-09T06:26:12;1.55;;;1.33;;
21613;SDS011;10969;49.550;25.564;2022-07-09T06:28:38;1.42;;;1.33;;
21613;SDS011;10969;49.550;25.564;2022-07-09T06:31:04;2.10;;;1.25;;
21613;SDS011;10969;49.550;25.564;2022-07-09T06:33:30;1.15;;;1.08;;
21613;SDS011;10969;49.550;25.564;2022-07-09T06:35:56;1.52;;;1.38;;
21613;SDS011;10969;49.550;25.564;2022-07-09T06:38:22;1.27;;;1.17;;
21613;SDS011;10969;49.550;25.564;2022-07-09T06:40:48;0.88;;;0.82;;
21613;SDS011;10969;49.550;25.564;2022-07-09T06:43:14;1.98;;;1.48;;
21613;SDS011;10969;49.550;25.564;2022-07-09T06:45:40;1.67;;;1.45;;
21613;SDS011;10969;49.550;25.564;2022-07-09T06:48:06;1.00;;;0.98;;
21613;SDS011;10969;49.550;25.564;2022-07-09T06:50:32;1.00;;;0.82;;
21613;SDS011;10969;49.550;25.564;2022-07-09T06:52:58;1.27;;;1.20;;
21613;SDS011;10969;49.550;25.564;2022-07-09T06:55:24;1.63;;;0.95;;
21613;SDS011;10969;49.550;25.564;2022-07-09T06:57:50;1.80;;;1.67;;
21613;SDS011;10969;49.550;25.564;2022-07-09T07:00:16;1.17;;;1.10;;
21613;SDS011;10969;49.550;25.564;2022-07-09T07:02:42;1.17;;;1.08;;
21613;SDS011;10969;49.550;25.564;2022-07-09T07:05:08;1.48;;;1.38;;
21613;SDS011;10969;49.550;25.564;2022-07-09T07:07:34;1.92;;;1.40;;
21613;SDS011;10969;49.550;25.564;2022-07-09T07:10:00;1.38;;;1.20;;
21613;SDS011;10969;49.550;25.564;2022-07-09T07:12:26;1.33;;;1.23;;
21613;SDS011;10969;49.550;25.564;2022-07-09T07:14:52;1.50;;;1.10;;
21613;SDS011;10969;49.550;25.564;2022-07-09T07:17:18;1.30;;;1.20;;
21613;SDS011;10969;49.550;25.564;2022-07-09T07:19:44;1.30;;;1.13;;
21613;SDS011;10969;49.550;25.564;2022-07-09T07:22:10;1.63;;;1.08;;
21613;SDS011;10969;49.550;25.564;2022-07-09T07:24:36;0.95;;;0.88;;
21613;SDS011;10969;49.550;25.564;2022-07-09T07:27:02;1.60;;;1.38;;
21613;SDS011;10969;49.550;25.564;2022-07-09T07:29:28;3.47;;;1.15;;
21613;SDS011;10969;49.550;25.564;2022-07-09T07:31:54;1.35;;;0.93;;
21613;SDS011;10969;49.550;25.564;2022-07-09T07:34:22;1.70;;;1.60;;
21613;SDS011;10969;49.550;25.564;2022-07-09T07:36:49;1.50;;;1.40;;
21613;SDS011;10969;49.550;25.564;2022-07-09T07:39:16;2.00;;;1.17;;
21613;SDS011;10969;49.550;25.564;2022-07-09T07:41:42;2.05;;;1.50;;
21613;SDS011;10969;49.550;25.564;2022-07-09T07:44:09;0.80;;;0.80;;
21613;SDS011;10969;49.550;25.564;2022-07-09T07:46:35;1.80;;;1.27;;
21613;SDS011;10969;49.550;25.564;2022-07-09T07:49:01;1.92;;;1.00;;
21613;SDS011;10969;49.550;25.564;2022-07-09T07:51:27;0.75;;;0.75;;
21613;SDS011;10969;49.550;25.564;2022-07-09T07:53:53;1.45;;;1.13;;
21613;SDS011;10969;49.550;25.564;2022-07-09T07:56:19;1.10;;;1.10;;
21613;SDS011;10969;49.550;25.564;2022-07-09T07:58:45;0.93;;;0.90;;
21613;SDS011;10969;49.550;25.564;2022-07-09T08:01:11;2.47;;;1.50;;
21613;SDS011;10969;49.550;25.564;2022-07-09T08:03:37;1.05;;;1.05;;
21613;SDS011;10969;49.550;25.564;2022-07-09T08:06:03;1.25;;;1.15;;
21613;SDS011;10969;49.550;25.564;2022-07-09T08:08:29;1.02;;;0.88;;
21613;SDS011;10969;49.550;25.564;2022-07-09T08:10:55;2.35;;;1.50;;
21613;SDS011;10969;49.550;25.564;2022-07-09T08:13:21;1.42;;;0.88;;
21613;SDS011;10969;49.550;25.564;2022-07-09T08:15:47;1.20;;;1.10;;
21613;SDS011;10969;49.550;25.564;2022-07-09T08:18:13;1.55;;;0.95;;
21613;SDS011;10969;49.550;25.564;2022-07-09T08:20:40;1.92;;;1.30;;
21613;SDS011;10969;49.550;25.564;2022-07-09T08:23:06;1.17;;;1.08;;
21613;SDS011;10969;49.550;25.564;2022-07-09T08:25:32;1.00;;;0.93;;
21613;SDS011;10969;49.550;25.564;2022-07-09T08:27:58;0.88;;;0.88;;
21613;SDS011;10969;49.550;25.564;2022-07-09T08:30:24;0.80;;;0.75;;
21613;SDS011;10969;49.550;25.564;2022-07-09T08:32:50;1.23;;;0.90;;
21613;SDS011;10969;49.550;25.564;2022-07-09T08:35:16;0.88;;;0.88;;
21613;SDS011;10969;49.550;25.564;2022-07-09T08:37:42;1.30;;;0.90;;
21613;SDS011;10969;49.550;25.564;2022-07-09T08:40:08;0.60;;;0.60;;
21613;SDS011;10969;49.550;25.564;2022-07-09T08:42:34;1.10;;;0.82;;
21613;SDS011;10969;49.550;25.564;2022-07-09T08:45:00;0.88;;;0.82;;
21613;SDS011;10969;49.550;25.564;2022-07-09T08:47:27;0.63;;;0.63;;
21613;SDS011;10969;49.550;25.564;2022-07-09T08:49:56;2.05;;;1.17;;
21613;SDS011;10969;49.550;25.564;2022-07-09T08:52:25;1.00;;;1.00;;
21613;SDS011;10969;49.550;25.564;2022-07-09T08:54:52;1.15;;;0.80;;
21613;SDS011;10969;49.550;25.564;2022-07-09T08:57:19;0.60;;;0.60;;
21613;SDS011;10969;49.550;25.564;2022-07-09T08:59:45;0.75;;;0.75;;
21613;SDS011;10969;49.550;25.564;2022-07-09T09:02:11;1.10;;;1.05;;
21613;SDS011;10969;49.550;25.564;2022-07-09T09:04:38;0.98;;;0.77;;
21613;SDS011;10969;49.550;25.564;2022-07-09T09:07:11;1.38;;;0.90;;
21613;SDS011;10969;49.550;25.564;2022-07-09T09:09:37;2.25;;;0.85;;
21613;SDS011;10969;49.550;25.564;2022-07-09T09:12:03;1.13;;;1.13;;
21613;SDS011;10969;49.550;25.564;2022-07-09T09:14:30;0.65;;;0.65;;
21613;SDS011;10969;49.550;25.564;2022-07-09T09:17:03;1.10;;;1.02;;
21613;SDS011;10969;49.550;25.564;2022-07-09T09:19:29;0.93;;;0.93;;
21613;SDS011;10969;49.550;25.564;2022-07-09T09:21:55;2.35;;;1.00;;
21613;SDS011;10969;49.550;25.564;2022-07-09T09:24:27;0.75;;;0.75;;
21613;SDS011;10969;49.550;25.564;2022-07-09T09:27:00;0.93;;;0.90;;
21613;SDS011;10969;49.550;25.564;2022-07-09T09:29:26;0.88;;;0.88;;
21613;SDS011;10969;49.550;25.564;2022-07-09T09:31:53;1.00;;;1.00;;
21613;SDS011;10969;49.550;25.564;2022-07-09T09:34:19;0.85;;;0.85;;
21613;SDS011;10969;49.550;25.564;2022-07-09T09:36:49;1.27;;;1.13;;
21613;SDS011;10969;49.550;25.564;2022-07-09T09:39:26;0.75;;;0.70;;
21613;SDS011;10969;49.550;25.564;2022-07-09T09:41:54;0.93;;;0.93;;
21613;SDS011;10969;49.550;25.564;2022-07-09T09:44:24;0.93;;;0.65;;
21613;SDS011;10969;49.550;25.564;2022-07-09T09:46:51;1.75;;;0.90;;
21613;SDS011;10969;49.550;25.564;2022-07-09T09:49:17;1.20;;;1.10;;
21613;SDS011;10969;49.550;25.564;2022-07-09T09:54:22;1.02;;;0.95;;
21613;SDS011;10969;49.550;25.564;2022-07-09T09:56:49;1.20;;;1.20;;
21613;SDS011;10969;49.550;25.564;2022-07-09T09:59:15;1.92;;;0.80;;
21613;SDS011;10969;49.550;25.564;2022-07-09T10:01:41;1.35;;;1.25;;
21613;SDS011;10969;49.550;25.564;2022-07-09T10:04:08;1.52;;;0.80;;
21613;SDS011;10969;49.550;25.564;2022-07-09T10:06:35;0.65;;;0.60;;
21613;SDS011;10969;49.550;25.564;2022-07-09T10:09:02;0.95;;;0.90;;
21613;SDS011;10969;49.550;25.564;2022-07-09T10:11:41;1.10;;;1.00;;
21613;SDS011;10969;49.550;25.564;2022-07-09T10:14:08;1.17;;;0.98;;
21613;SDS011;10969;49.550;25.564;2022-07-09T10:16:40;0.90;;;0.90;;
21613;SDS011;10969;49.550;25.564;2022-07-09T10:19:06;3.80;;;1.27;;
21613;SDS011;10969;49.550;25.564;2022-07-09T10:21:39;0.93;;;0.93;;
21613;SDS011;10969;49.550;25.564;2022-07-09T10:24:06;0.50;;;0.50;;
21613;SDS011;10969;49.550;25.564;2022-07-09T10:26:43;0.63;;;0.63;;
21613;SDS011;10969;49.550;25.564;2022-07-09T10:29:25;0.95;;;0.93;;
21613;SDS011;10969;49.550;25.564;2022-07-09T10:31:52;1.15;;;0.88;;
21613;SDS011;10969;49.550;25.564;2022-07-09T10:37:00;1.10;;;1.10;;
21613;SDS011;10969;49.550;25.564;2022-07-09T10:39:26;1.70;;;1.30;;
21613;SDS011;10969;49.550;25.564;2022-07-09T10:42:02;0.80;;;0.80;;
21613;SDS011;10969;49.550;25.564;2022-07-09T10:44:40;1.00;;;0.90;;
21613;SDS011;10969;49.550;25.564;2022-07-09T10:47:06;1.02;;;1.00;;
21613;SDS011;10969;49.550;25.564;2022-07-09T10:49:35;1.15;;;1.05;;
21613;SDS011;10969;49.550;25.564;2022-07-09T10:52:03;1.35;;;1.25;;
21613;SDS011;10969;49.550;25.564;2022-07-09T10:54:29;2.08;;;0.98;;
21613;SDS011;10969;49.550;25.564;2022-07-09T10:56:55;1.15;;;1.10;;
21613;SDS011;10969;49.550;25.564;2022-07-09T10:59:22;1.10;;;1.00;;
21613;SDS011;10969;49.550;25.564;2022-07-09T11:01:48;1.00;;;1.00;;
21613;SDS011;10969;49.550;25.564;2022-07-09T11:04:29;0.70;;;0.70;;
21613;SDS011;10969;49.550;25.564;2022-07-09T11:06:56;0.75;;;0.75;;
21613;SDS011;10969;49.550;25.564;2022-07-09T11:09:22;0.80;;;0.77;;
21613;SDS011;10969;49.550;25.564;2022-07-09T11:11:52;0.90;;;0.90;;
21613;SDS011;10969;49.550;25.564;2022-07-09T11:14:18;1.05;;;1.05;;
21613;SDS011;10969;49.550;25.564;2022-07-09T11:17:06;0.93;;;0.93;;
21613;SDS011;10969;49.550;25.564;2022-07-09T11:19:31;1.42;;;1.20;;
21613;SDS011;10969;49.550;25.564;2022-07-09T11:22:00;0.73;;;0.73;;
21613;SDS011;10969;49.550;25.564;2022-07-09T11:24:27;0.80;;;0.80;;
21613;SDS011;10969;49.550;25.564;2022-07-09T11:26:54;0.70;;;0.70;;
21613;SDS011;10969;49.550;25.564;2022-07-09T11:29:20;2.17;;;0.50;;
21613;SDS011;10969;49.550;25.564;2022-07-09T11:31:46;0.65;;;0.63;;
21613;SDS011;10969;49.550;25.564;2022-07-09T11:34:13;0.50;;;0.50;;
21613;SDS011;10969;49.550;25.564;2022-07-09T11:36:43;1.00;;;0.90;;
21613;SDS011;10969;49.550;25.564;2022-07-09T11:39:10;0.50;;;0.50;;
21613;SDS011;10969;49.550;25.564;2022-07-09T11:41:46;0.60;;;0.60;;
21613;SDS011;10969;49.550;25.564;2022-07-09T11:49:42;0.82;;;0.82;;
21613;SDS011;10969;49.550;25.564;2022-07-09T11:52:18;0.55;;;0.55;;
21613;SDS011;10969;49.550;25.564;2022-07-09T11:55:02;0.45;;;0.45;;
21613;SDS011;10969;49.550;25.564;2022-07-09T11:57:29;0.82;;;0.82;;
21613;SDS011;10969;49.550;25.564;2022-07-09T11:59:57;0.60;;;0.60;;
21613;SDS011;10969;49.550;25.564;2022-07-09T12:04:49;0.77;;;0.77;;
21613;SDS011;10969;49.550;25.564;2022-07-09T12:07:15;0.77;;;0.77;;
21613;SDS011;10969;49.550;25.564;2022-07-09T12:09:41;0.75;;;0.75;;
21613;SDS011;10969;49.550;25.564;2022-07-09T12:12:07;0.47;;;0.47;;
21613;SDS011;10969;49.550;25.564;2022-07-09T12:14:33;1.10;;;1.05;;
21613;SDS011;10969;49.550;25.564;2022-07-09T12:16:59;0.65;;;0.65;;
21613;SDS011;10969;49.550;25.564;2022-07-09T12:19:25;0.82;;;0.82;;
21613;SDS011;10969;49.550;25.564;2022-07-09T12:21:51;0.85;;;0.85;;
21613;SDS011;10969;49.550;25.564;2022-07-09T12:24:17;0.40;;;0.40;;
21613;SDS011;10969;49.550;25.564;2022-07-09T12:26:43;1.02;;;0.77;;
21613;SDS011;10969;49.550;25.564;2022-07-09T12:29:09;1.45;;;0.70;;
21613;SDS011;10969;49.550;25.564;2022-07-09T12:31:35;1.00;;;0.65;;
21613;SDS011;10969;49.550;25.564;2022-07-09T12:34:03;2.78;;;0.80;;
21613;SDS011;10969;49.550;25.564;2022-07-09T12:36:29;1.42;;;0.60;;
21613;SDS011;10969;49.550;25.564;2022-07-09T12:38:55;0.60;;;0.60;;
21613;SDS011;10969;49.550;25.564;2022-07-09T12:41:21;0.88;;;0.80;;
21613;SDS011;10969;49.550;25.564;2022-07-09T12:43:47;0.80;;;0.80;;
21613;SDS011;10969;49.550;25.564;2022-07-09T12:46:14;0.70;;;0.70;;
21613;SDS011;10969;49.550;25.564;2022-07-09T12:48:40;0.70;;;0.70;;
21613;SDS011;10969;49.550;25.564;2022-07-09T12:51:06;0.63;;;0.63;;
21613;SDS011;10969;49.550;25.564;2022-07-09T12:53:32;0.63;;;0.63;;
21613;SDS011;10969;49.550;25.564;2022-07-09T12:55:58;0.88;;;0.88;;
21613;SDS011;10969;49.550;25.564;2022-07-09T12:58:24;0.52;;;0.52;;
21613;SDS011;10969;49.550;25.564;2022-07-09T13:00:50;0.65;;;0.65;;
21613;SDS011;10969;49.550;25.564;2022-07-09T13:03:16;0.60;;;0.60;;
21613;SDS011;10969;49.550;25.564;2022-07-09T13:05:42;0.55;;;0.55;;
21613;SDS011;10969;49.550;25.564;2022-07-09T13:08:08;0.50;;;0.50;;
21613;SDS011;10969;49.550;25.564;2022-07-09T13:10:34;0.50;;;0.50;;
21613;SDS011;10969;49.550;25.564;2022-07-09T13:13:00;0.75;;;0.60;;
21613;SDS011;10969;49.550;25.564;2022-07-09T13:15:26;0.45;;;0.45;;
21613;SDS011;10969;49.550;25.564;2022-07-09T13:17:52;1.95;;;1.05;;
21613;SDS011;10969;49.550;25.564;2022-07-09T13:20:19;0.50;;;0.50;;
21613;SDS011;10969;49.550;25.564;2022-07-09T13:22:45;0.50;;;0.50;;
21613;SDS011;10969;49.550;25.564;2022-07-09T13:25:11;0.60;;;0.60;;
21613;SDS011;10969;49.550;25.564;2022-07-09T13:27:37;0.50;;;0.50;;
21613;SDS011;10969;49.550;25.564;2022-07-09T13:30:03;0.57;;;0.57;;
21613;SDS011;10969;49.550;25.564;2022-07-09T13:32:29;0.45;;;0.45;;
21613;SDS011;10969;49.550;25.564;2022-07-09T13:34:55;0.50;;;0.50;;
21613;SDS011;10969;49.550;25.564;2022-07-09T13:37:21;0.68;;;0.68;;
21613;SDS011;10969;49.550;25.564;2022-07-09T13:39:48;0.57;;;0.57;;
21613;SDS011;10969;49.550;25.564;2022-07-09T13:42:14;1.20;;;0.70;;
21613;SDS011;10969;49.550;25.564;2022-07-09T13:44:40;0.50;;;0.50;;
21613;SDS011;10969;49.550;25.564;2022-07-09T13:47:06;0.70;;;0.70;;
21613;SDS011;10969;49.550;25.564;2022-07-09T13:49:32;2.22;;;0.60;;
21613;SDS011;10969;49.550;25.564;2022-07-09T13:51:58;0.65;;;0.63;;
21613;SDS011;10969;49.550;25.564;2022-07-09T13:54:24;0.65;;;0.65;;
21613;SDS011;10969;49.550;25.564;2022-07-09T13:56:50;0.57;;;0.57;;
21613;SDS011;10969;49.550;25.564;2022-07-09T13:59:16;0.93;;;0.60;;
21613;SDS011;10969;49.550;25.564;2022-07-09T14:01:42;1.23;;;0.68;;
21613;SDS011;10969;49.550;25.564;2022-07-09T14:04:08;0.60;;;0.52;;
21613;SDS011;10969;49.550;25.564;2022-07-09T14:06:34;0.90;;;0.90;;
21613;SDS011;10969;49.550;25.564;2022-07-09T14:09:00;0.90;;;0.90;;
21613;SDS011;10969;49.550;25.564;2022-07-09T14:11:26;0.65;;;0.65;;
21613;SDS011;10969;49.550;25.564;2022-07-09T14:13:52;1.00;;;0.80;;
21613;SDS011;10969;49.550;25.564;2022-07-09T14:16:19;0.70;;;0.70;;
21613;SDS011;10969;49.550;25.564;2022-07-09T14:18:46;1.35;;;0.90;;
21613;SDS011;10969;49.550;25.564;2022-07-09T14:21:12;0.65;;;0.65;;
21613;SDS011;10969;49.550;25.564;2022-07-09T14:23:38;0.55;;;0.55;;
21613;SDS011;10969;49.550;25.564;2022-07-09T14:26:04;0.38;;;0.38;;
21613;SDS011;10969;49.550;25.564;2022-07-09T14:28:30;0.73;;;0.73;;
21613;SDS011;10969;49.550;25.564;2022-07-09T14:30:56;0.80;;;0.80;;
21613;SDS011;10969;49.550;25.564;2022-07-09T14:33:22;0.70;;;0.70;;
21613;SDS011;10969;49.550;25.564;2022-07-09T14:35:48;0.80;;;0.80;;
21613;SDS011;10969;49.550;25.564;2022-07-09T14:38:14;0.80;;;0.80;;
21613;SDS011;10969;49.550;25.564;2022-07-09T14:40:40;0.80;;;0.60;;
21613;SDS011;10969;49.550;25.564;2022-07-09T14:43:06;0.43;;;0.43;;